KTXK/TXK METAR and TAF weather

Enter ICAO airport designator
Station Type Date Time Source
KTXK METAR 2022/06/28 07:53 UTC NOAA

KTXK 280753Z AUTO 00000KT 10SM CLR 19/17 A3015 RMK AO2 SLP206 T01940172


Station Type Date Time Source
KTXK Decoded METAR 2022/06/28 07:53 UTC NOAA

TEXARKANA RGNL WEBB FIELD, AR, United States (KTXK) 33-27N 093-59W 111M
Jun 28, 2022 - 03:53 AM EDT / 2022.06.28 0753 UTC
Wind: Calm:0
Visibility: 10 mile(s):0
Sky conditions: clear
Temperature: 66.9 F (19.4 C)
Dew Point: 63.0 F (17.2 C)
Relative Humidity: 87%
Pressure (altimeter): 30.15 in. Hg (1020 hPa)
ob: KTXK 280753Z AUTO 00000KT 10SM CLR 19/17 A3015 RMK AO2 SLP206 T01940172
cycle: 8

Station Type Date Time Source
KTXK TAF 2022/06/28 06:42 UTC NOAA

TAF KTXK 280540Z 2806/2906 06003KT P6SM FEW250
FM281500 04009KT P6SM SCT250
FM290100 04003KT P6SM SKC

Example: see airport list